createdAt,value
2022-11-24T00:01:28.888Z,86.13
2022-11-24T00:03:59.699Z,80.90
2022-11-24T00:06:28.198Z,82.43
2022-11-24T00:08:58.578Z,91.83
2022-11-24T00:11:28.751Z,83.30
2022-11-24T00:13:58.113Z,72.43
2022-11-24T00:16:28.445Z,67.53
2022-11-24T00:18:58.455Z,71.53
2022-11-24T00:21:28.406Z,76.57
2022-11-24T00:23:58.477Z,78.07
2022-11-24T00:26:28.068Z,77.20
2022-11-24T00:28:58.508Z,79.80
2022-11-24T00:31:28.914Z,79.43
2022-11-24T00:33:59.496Z,81.37
2022-11-24T00:36:29.926Z,79.47
2022-11-24T00:39:01.464Z,81.60
2022-11-24T00:41:30.598Z,70.40
2022-11-24T00:43:59.579Z,82.00
2022-11-24T00:46:28.927Z,89.10
2022-11-24T00:48:57.651Z,79.80
2022-11-24T00:51:27.972Z,86.30
2022-11-24T00:53:57.315Z,91.73
2022-11-24T00:56:27.318Z,69.90
2022-11-24T00:58:56.232Z,86.07
2022-11-24T01:01:26.238Z,81.43
2022-11-24T01:03:55.823Z,79.87
2022-11-24T01:06:25.829Z,85.80
2022-11-24T01:08:54.518Z,85.87
2022-11-24T01:11:24.801Z,84.33
2022-11-24T01:13:57.376Z,73.50
2022-11-24T01:16:28.857Z,74.20
2022-11-24T01:18:57.476Z,91.87
2022-11-24T01:21:25.793Z,81.97
2022-11-24T01:23:54.325Z,85.50
2022-11-24T01:26:23.317Z,87.30
2022-11-24T01:28:55.913Z,77.83
2022-11-24T01:31:24.769Z,80.17
2022-11-24T01:33:53.714Z,77.63
2022-11-24T01:36:22.693Z,72.77
2022-11-24T01:38:51.315Z,86.47
2022-11-24T01:41:21.339Z,81.17
2022-11-24T01:43:50.754Z,73.37
2022-11-24T01:46:24.984Z,71.97
2022-11-24T01:48:59.005Z,84.93
2022-11-24T01:51:29.616Z,85.80
2022-11-24T01:54:01.671Z,86.87
2022-11-24T01:56:31.304Z,80.43
2022-11-24T01:59:01.167Z,82.83
2022-11-24T02:01:32.157Z,89.23
2022-11-24T02:04:02.537Z,80.27
2022-11-24T02:06:33.121Z,88.13
2022-11-24T02:09:06.984Z,90.07
2022-11-24T02:11:38.053Z,95.87
2022-11-24T02:14:08.432Z,79.30
2022-11-24T02:16:39.371Z,93.10
2022-11-24T02:19:15.424Z,84.30
2022-11-24T02:21:43.528Z,86.47
2022-11-24T02:24:19.972Z,80.60
2022-11-24T02:26:51.989Z,85.03
2022-11-24T02:29:21.383Z,79.10
2022-11-24T02:31:52.269Z,81.73
2022-11-24T02:34:20.591Z,83.13
2022-11-24T02:36:48.615Z,77.27
2022-11-24T02:39:17.165Z,81.93
2022-11-24T02:41:51.261Z,76.63
2022-11-24T02:44:22.956Z,87.63
2022-11-24T02:46:51.158Z,86.10
2022-11-24T02:49:19.760Z,74.63
2022-11-24T02:51:47.834Z,83.00
2022-11-24T02:54:16.341Z,89.23
2022-11-24T02:56:44.389Z,93.63
2022-11-24T02:59:14.062Z,87.07
2022-11-24T03:01:42.293Z,96.30
2022-11-24T03:04:10.787Z,75.43
2022-11-24T03:06:38.945Z,98.70
2022-11-24T03:09:07.550Z,92.53
2022-11-24T03:11:35.679Z,91.30
2022-11-24T03:14:04.029Z,90.07
2022-11-24T03:16:34.139Z,93.30
2022-11-24T03:19:03.068Z,90.40
2022-11-24T03:21:31.063Z,87.67
2022-11-24T03:24:00.261Z,95.90
2022-11-24T03:26:28.877Z,97.63
2022-11-24T03:28:57.719Z,93.70
2022-11-24T03:31:26.097Z,93.53
2022-11-24T03:33:55.883Z,91.53
2022-11-24T03:36:24.212Z,100.70
2022-11-24T03:38:52.948Z,100.97
2022-11-24T03:41:21.834Z,95.57
2022-11-24T03:43:50.324Z,96.80
2022-11-24T03:46:18.552Z,94.37
2022-11-24T03:48:46.889Z,97.33
2022-11-24T03:51:16.199Z,90.03
2022-11-24T03:53:44.593Z,99.57
2022-11-24T03:56:12.628Z,94.93
2022-11-24T03:58:40.882Z,95.97
2022-11-24T04:01:09.114Z,98.63
2022-11-24T04:03:37.404Z,94.93
2022-11-24T04:06:05.619Z,94.53
2022-11-24T04:08:35.223Z,107.27
2022-11-24T04:11:03.846Z,92.03
2022-11-24T04:13:31.270Z,87.03
2022-11-24T04:15:59.417Z,96.70
2022-11-24T04:18:27.985Z,76.93
2022-11-24T04:20:56.114Z,85.97
2022-11-24T04:23:24.561Z,74.97
2022-11-24T04:25:54.073Z,74.30
2022-11-24T04:28:22.574Z,73.43
2022-11-24T04:30:50.548Z,70.70
2022-11-24T04:33:18.879Z,76.60
2022-11-24T04:35:46.880Z,77.23
2022-11-24T04:39:23.900Z,68.60
2022-11-24T04:41:05.672Z,86.00
2022-11-24T04:43:40.238Z,83.63
2022-11-24T04:46:12.167Z,71.07
2022-11-24T04:48:40.536Z,78.30
2022-11-24T04:51:08.752Z,82.43
2022-11-24T04:53:37.231Z,88.07
2022-11-24T04:56:08.073Z,75.73
2022-11-24T04:58:36.932Z,76.93
2022-11-24T05:01:08.977Z,80.70
2022-11-24T05:03:37.651Z,71.77
2022-11-24T05:06:06.378Z,82.20
2022-11-24T05:08:34.763Z,78.40
2022-11-24T05:11:07.362Z,76.30
2022-11-24T05:13:35.989Z,87.70
2022-11-24T05:16:04.225Z,82.03
2022-11-24T05:18:33.490Z,83.53
2022-11-24T05:21:01.768Z,102.83
2022-11-24T05:23:30.140Z,104.80
2022-11-24T05:26:00.832Z,102.73
2022-11-24T05:28:31.049Z,100.10
2022-11-24T05:31:01.487Z,100.23
2022-11-24T05:33:30.288Z,95.63
2022-11-24T05:36:02.620Z,99.83
2022-11-24T05:38:31.225Z,106.20
2022-11-24T05:41:01.947Z,93.53
2022-11-24T05:43:32.343Z,94.27
2022-11-24T05:46:01.360Z,104.63
2022-11-24T05:48:30.220Z,95.53
2022-11-24T05:50:59.615Z,102.03
2022-11-24T05:53:28.132Z,97.37
2022-11-24T05:55:56.475Z,87.97
2022-11-24T05:58:25.159Z,95.17
2022-11-24T06:00:54.715Z,106.57
2022-11-24T06:03:23.643Z,88.97
2022-11-24T06:05:51.815Z,97.33
2022-11-24T06:08:20.356Z,99.90
2022-11-24T06:10:48.389Z,98.23
2022-11-24T06:13:16.996Z,85.53
2022-11-24T06:15:45.360Z,87.83
2022-11-24T06:18:15.224Z,99.60
2022-11-24T06:20:53.108Z,79.80
2022-11-24T06:23:31.567Z,95.10
2022-11-24T06:25:59.853Z,97.60
2022-11-24T06:28:28.863Z,101.43
2022-11-24T06:31:00.715Z,88.30
2022-11-24T06:33:34.014Z,85.73
2022-11-24T06:36:03.586Z,95.87
2022-11-24T06:38:32.899Z,85.20
2022-11-24T06:41:01.920Z,90.60
2022-11-24T06:43:31.409Z,97.33
2022-11-24T06:46:00.248Z,78.50
2022-11-24T06:48:29.393Z,92.20
2022-11-24T06:51:01.689Z,93.40
2022-11-24T06:53:31.672Z,76.33
2022-11-24T06:56:00.867Z,75.73
2022-11-24T06:58:29.632Z,93.47
2022-11-24T07:00:57.829Z,83.90
2022-11-24T07:03:26.476Z,84.90
2022-11-24T07:05:58.145Z,78.57
2022-11-24T07:08:29.203Z,86.43
2022-11-24T07:10:57.460Z,74.00
2022-11-24T07:13:25.802Z,89.17
2022-11-24T07:15:53.914Z,73.63
2022-11-24T07:18:22.495Z,76.17
2022-11-24T07:20:50.633Z,81.50
2022-11-24T07:23:18.928Z,67.70
2022-11-24T07:25:48.462Z,76.77
2022-11-24T07:28:16.856Z,73.37
2022-11-24T07:30:44.919Z,71.03
2022-11-24T07:33:13.317Z,74.40
2022-11-24T07:35:41.304Z,75.03
2022-11-24T07:38:09.740Z,74.90
2022-11-24T07:40:37.819Z,80.43
2022-11-24T07:43:07.649Z,78.70
2022-11-24T07:45:36.694Z,84.23
2022-11-24T07:48:05.490Z,83.50
2022-11-24T07:50:33.565Z,79.63
2022-11-24T07:53:03.154Z,80.33
2022-11-24T07:55:31.375Z,83.77
2022-11-24T07:58:02.974Z,91.13
2022-11-24T08:00:32.483Z,93.50
2022-11-24T08:03:00.871Z,84.37
2022-11-24T08:05:29.151Z,83.07
2022-11-24T08:07:57.630Z,77.67
2022-11-24T08:10:25.852Z,84.67
2022-11-24T08:12:54.293Z,94.27
2022-11-24T08:15:22.348Z,87.67
2022-11-24T08:17:52.166Z,82.17
2022-11-24T08:20:20.435Z,92.87
2022-11-24T08:22:48.832Z,76.30
2022-11-24T08:25:18.512Z,79.97
2022-11-24T08:27:46.932Z,82.20
2022-11-24T08:30:15.574Z,91.63
2022-11-24T08:32:43.979Z,83.93
2022-11-24T08:35:16.713Z,84.87
2022-11-24T08:37:45.226Z,88.83
2022-11-24T08:40:14.442Z,78.40
2022-11-24T08:42:42.877Z,85.07
2022-11-24T08:45:20.331Z,72.63
2022-11-24T08:47:53.700Z,76.97
2022-11-24T08:50:23.902Z,85.47
2022-11-24T08:52:52.996Z,79.83
2022-11-24T08:55:21.282Z,87.97
2022-11-24T08:57:49.674Z,78.27
2022-11-24T09:00:22.537Z,78.37
2022-11-24T09:02:56.280Z,84.03
2022-11-24T09:05:51.141Z,80.43
2022-11-24T09:08:15.230Z,75.47
2022-11-24T09:10:43.980Z,84.13
2022-11-24T09:13:12.399Z,77.43
2022-11-24T09:15:40.581Z,73.73
2022-11-24T09:18:08.972Z,78.90
2022-11-24T09:20:38.395Z,73.87
2022-11-24T09:23:07.136Z,73.67
2022-11-24T09:25:35.346Z,88.20
2022-11-24T09:28:03.718Z,75.00
2022-11-24T09:30:31.861Z,74.10
2022-11-24T09:33:00.495Z,85.83
2022-11-24T09:35:28.572Z,77.60
2022-11-24T09:37:58.206Z,80.60
2022-11-24T09:40:26.325Z,79.50
2022-11-24T09:43:01.721Z,81.37
2022-11-24T09:46:04.473Z,83.03
2022-11-24T09:48:36.055Z,76.10
2022-11-24T09:51:05.544Z,91.57
2022-11-24T09:53:42.159Z,85.17
2022-11-24T09:56:21.126Z,92.77
2022-11-24T09:58:51.674Z,82.70
2022-11-24T10:01:22.622Z,83.67
2022-11-24T10:03:52.864Z,83.97
2022-11-24T10:06:24.694Z,85.20
2022-11-24T10:09:15.410Z,90.60
2022-11-24T10:11:51.152Z,83.47
2022-11-24T10:14:42.145Z,81.63
2022-11-24T10:17:22.644Z,89.60
2022-11-24T10:19:57.204Z,86.97
2022-11-24T10:22:37.717Z,84.20
2022-11-24T10:25:16.732Z,94.50
2022-11-24T10:27:46.472Z,87.60
2022-11-24T10:30:19.381Z,84.57
2022-11-24T10:32:49.754Z,90.40
2022-11-24T10:35:22.524Z,89.53
2022-11-24T10:37:58.255Z,79.60
2022-11-24T10:43:28.778Z,85.97
2022-11-24T10:46:07.210Z,90.93
2022-11-24T10:48:41.566Z,105.30
2022-11-24T10:51:38.220Z,91.33
2022-11-24T10:54:11.674Z,89.40
2022-11-24T10:56:42.815Z,99.30
2022-11-24T10:59:39.462Z,97.70
2022-11-24T11:02:34.753Z,105.17
2022-11-24T11:05:26.613Z,97.07
2022-11-24T11:08:15.698Z,104.43
2022-11-24T11:10:45.379Z,98.83
2022-11-24T11:13:26.528Z,103.30
2022-11-24T11:15:55.714Z,101.57
2022-11-24T11:18:30.791Z,113.33
2022-11-24T11:21:02.066Z,98.37
2022-11-24T11:23:33.183Z,112.17
2022-11-24T11:26:31.001Z,106.97
2022-11-24T11:34:50.494Z,102.20
2022-11-24T11:37:20.896Z,101.73
2022-11-24T11:39:51.270Z,94.80
2022-11-24T11:42:59.920Z,109.57
2022-11-24T11:45:19.470Z,110.30
2022-11-24T11:47:53.276Z,95.13
2022-11-24T11:50:28.741Z,100.17
2022-11-24T11:53:11.378Z,102.53
2022-11-24T11:55:57.996Z,101.53
2022-11-24T11:58:49.285Z,106.20
2022-11-24T12:01:45.388Z,98.90
2022-11-24T12:04:25.431Z,94.93
2022-11-24T12:07:17.637Z,104.77
2022-11-24T12:09:58.572Z,99.17
2022-11-24T12:12:48.791Z,97.03
2022-11-24T12:15:23.909Z,109.73
2022-11-24T12:17:58.477Z,109.03
2022-11-24T12:20:42.374Z,109.20
2022-11-24T12:23:21.065Z,103.97
2022-11-24T12:25:55.585Z,110.73
2022-11-24T12:28:36.570Z,113.90
2022-11-24T12:31:07.492Z,103.23
2022-11-24T12:34:01.567Z,93.40
2022-11-24T12:36:53.244Z,115.03
2022-11-24T12:39:28.607Z,118.90
2022-11-24T12:42:09.432Z,123.77
2022-11-24T12:45:00.637Z,111.80
2022-11-24T12:47:40.707Z,106.17
2022-11-24T12:50:13.740Z,114.73
2022-11-24T12:52:52.871Z,113.83
2022-11-24T12:55:25.657Z,110.40
2022-11-24T12:57:59.552Z,115.03
2022-11-24T13:00:35.201Z,115.20
2022-11-24T13:03:15.401Z,122.20
2022-11-24T13:05:53.260Z,118.97
2022-11-24T13:08:22.069Z,105.60
2022-11-24T13:10:58.149Z,124.03
2022-11-24T13:13:29.353Z,115.00
2022-11-24T13:19:09.255Z,112.67
2022-11-24T13:21:51.826Z,111.93
2022-11-24T13:24:26.058Z,112.57
2022-11-24T13:26:56.496Z,115.70
2022-11-24T13:29:36.362Z,115.43
2022-11-24T13:32:50.970Z,120.20
2022-11-24T13:35:19.182Z,113.20
2022-11-24T13:37:51.806Z,123.90
2022-11-24T13:40:59.871Z,123.17
2022-11-24T13:43:32.618Z,127.20
2022-11-24T13:46:00.678Z,121.23
2022-11-24T13:48:55.063Z,117.27
2022-11-24T13:51:25.099Z,123.10
2022-11-24T13:53:57.815Z,129.27
2022-11-24T13:56:31.772Z,125.57
2022-11-24T13:59:03.687Z,123.13
2022-11-24T14:01:33.345Z,114.23
2022-11-24T14:04:29.217Z,123.83
2022-11-24T14:07:07.342Z,115.53
2022-11-24T14:09:43.863Z,119.77
2022-11-24T14:12:16.974Z,105.07
2022-11-24T14:14:47.056Z,117.17
2022-11-24T14:17:21.327Z,117.77
2022-11-24T14:19:51.497Z,122.50
2022-11-24T14:22:22.726Z,116.00
2022-11-24T14:25:00.233Z,113.07
2022-11-24T14:27:31.261Z,113.57
2022-11-24T14:30:01.714Z,116.80
2022-11-24T14:32:30.225Z,127.93
2022-11-24T14:34:58.664Z,126.97
2022-11-24T14:37:26.832Z,114.80
2022-11-24T14:39:55.321Z,111.53
2022-11-24T14:42:28.268Z,118.03
2022-11-24T14:44:59.256Z,113.43
2022-11-24T14:47:31.958Z,121.43
2022-11-24T14:50:12.421Z,127.87
2022-11-24T14:52:46.482Z,112.77
2022-11-24T14:55:29.150Z,113.50
2022-11-24T14:57:59.478Z,120.43
2022-11-24T15:00:30.065Z,110.60
2022-11-24T15:03:16.016Z,117.33
2022-11-24T15:05:56.479Z,109.27
2022-11-24T15:08:26.127Z,115.23
2022-11-24T15:11:00.230Z,113.63
2022-11-24T15:13:34.914Z,114.87
2022-11-24T15:16:06.687Z,111.50
2022-11-24T15:18:39.958Z,114.93
2022-11-24T15:21:10.808Z,111.43
2022-11-24T15:23:43.205Z,113.27
2022-11-24T15:26:30.676Z,103.37
2022-11-24T15:29:00.978Z,109.97
2022-11-24T15:31:29.587Z,111.57
2022-11-24T15:33:57.728Z,115.87
2022-11-24T15:36:26.116Z,103.53
2022-11-24T15:38:54.857Z,109.97
2022-11-24T15:41:29.356Z,120.17
2022-11-24T15:43:59.802Z,115.23
2022-11-24T15:46:30.767Z,115.87
2022-11-24T15:48:58.865Z,122.83
2022-11-24T15:51:28.133Z,115.27
2022-11-24T15:54:01.004Z,118.23
2022-11-24T15:56:32.370Z,119.40
2022-11-24T15:59:00.827Z,109.57
2022-11-24T16:01:33.245Z,130.87
2022-11-24T16:04:01.674Z,123.00
2022-11-24T16:06:30.248Z,114.30
2022-11-24T16:08:59.228Z,123.27
2022-11-24T16:11:28.134Z,110.77
2022-11-24T16:13:56.369Z,124.70
2022-11-24T16:16:25.545Z,124.57
2022-11-24T16:18:55.284Z,107.00
2022-11-24T16:21:23.588Z,129.47
2022-11-24T16:23:51.817Z,119.30
2022-11-24T16:26:20.172Z,130.13
2022-11-24T16:28:48.272Z,121.90
2022-11-24T16:31:17.948Z,130.93
2022-11-24T16:33:46.591Z,132.03
2022-11-24T16:36:16.660Z,116.20
2022-11-24T16:38:45.292Z,130.67
2022-11-24T16:41:14.372Z,125.40
2022-11-24T16:43:42.576Z,144.47
2022-11-24T16:46:19.534Z,134.83
2022-11-24T16:48:49.320Z,120.33
2022-11-24T16:51:20.875Z,118.20
2022-11-24T16:53:49.414Z,119.07
2022-11-24T16:56:17.756Z,112.43
2022-11-24T16:58:45.911Z,125.27
2022-11-24T17:01:15.607Z,126.50
2022-11-24T17:03:43.996Z,117.60
2022-11-24T17:06:15.757Z,113.67
2022-11-24T17:08:46.372Z,128.30
2022-11-24T17:11:16.595Z,108.67
2022-11-24T17:13:47.007Z,115.50
2022-11-24T17:16:16.829Z,114.90
2022-11-24T17:18:45.359Z,126.60
2022-11-24T17:21:16.347Z,117.77
2022-11-24T17:23:46.164Z,124.80
2022-11-24T17:26:16.726Z,112.40
2022-11-24T17:28:45.484Z,127.10
2022-11-24T17:31:19.409Z,119.93
2022-11-24T17:33:47.454Z,118.33
2022-11-24T17:36:15.888Z,121.47
2022-11-24T17:38:45.600Z,108.37
2022-11-24T17:41:14.141Z,121.93
2022-11-24T17:43:42.328Z,147.70
2022-11-24T17:46:11.784Z,121.87
2022-11-24T17:48:40.181Z,126.40
2022-11-24T17:51:12.696Z,144.70
2022-11-24T17:53:42.312Z,107.47
2022-11-24T17:56:14.275Z,124.80
2022-11-24T17:58:43.283Z,126.40
2022-11-24T18:01:12.688Z,112.47
2022-11-24T18:03:41.233Z,127.73
2022-11-24T18:06:11.114Z,119.03
2022-11-24T18:08:40.765Z,131.97
2022-11-24T18:11:12.803Z,117.07
2022-11-24T18:13:56.641Z,124.17
2022-11-24T18:16:30.270Z,118.17
2022-11-24T18:19:10.139Z,124.00
2022-11-24T18:21:40.309Z,143.37
2022-11-24T18:24:11.120Z,133.07
2022-11-24T18:26:42.080Z,122.43
2022-11-24T18:29:11.440Z,128.97
2022-11-24T18:31:40.255Z,130.77
2022-11-24T18:34:08.850Z,127.73
2022-11-24T18:36:37.744Z,136.17
2022-11-24T18:39:07.812Z,129.53
2022-11-24T18:41:37.081Z,125.83
2022-11-24T18:44:09.545Z,142.07
2022-11-24T18:46:45.329Z,132.43
2022-11-24T18:49:21.582Z,134.57
2022-11-24T18:51:58.671Z,143.30
2022-11-24T18:54:32.949Z,133.73
2022-11-24T18:57:04.307Z,130.30
2022-11-24T18:59:36.853Z,129.37
2022-11-24T19:02:05.706Z,125.27
2022-11-24T19:04:39.449Z,130.23
2022-11-24T19:07:08.014Z,133.70
2022-11-24T19:09:36.191Z,147.67
2022-11-24T19:12:06.283Z,133.00
2022-11-24T19:14:36.261Z,129.10
2022-11-24T19:17:05.964Z,141.50
2022-11-24T19:19:34.178Z,129.77
2022-11-24T19:22:04.693Z,139.27
2022-11-24T19:24:33.347Z,141.70
2022-11-24T19:27:01.943Z,130.13
2022-11-24T19:29:30.107Z,125.43
2022-11-24T19:31:59.917Z,128.27
2022-11-24T19:34:28.038Z,132.77
2022-11-24T19:36:56.668Z,124.77
2022-11-24T19:39:24.909Z,136.50
2022-11-24T19:41:53.982Z,130.63
2022-11-24T19:44:24.143Z,126.30
2022-11-24T19:46:52.578Z,132.90
2022-11-24T19:49:22.022Z,133.90
2022-11-24T19:51:50.800Z,133.03
2022-11-24T19:54:18.943Z,128.27
2022-11-24T19:56:47.768Z,123.27
2022-11-24T19:59:16.197Z,134.57
2022-11-24T20:01:45.092Z,127.93
2022-11-24T20:04:15.490Z,137.53
2022-11-24T20:06:46.996Z,124.70
2022-11-24T20:09:17.725Z,125.77
2022-11-24T20:11:46.985Z,141.13
2022-11-24T20:14:17.433Z,135.60
2022-11-24T20:16:47.671Z,124.63
2022-11-24T20:19:17.491Z,137.00
2022-11-24T20:21:49.916Z,131.03
2022-11-24T20:24:20.493Z,136.27
2022-11-24T20:26:50.652Z,141.10
2022-11-24T20:29:20.215Z,145.67
2022-11-24T20:31:51.105Z,158.73
2022-11-24T20:34:20.050Z,148.53
2022-11-24T20:36:50.442Z,142.10
2022-11-24T20:39:21.809Z,124.83
2022-11-24T20:41:50.248Z,138.57
2022-11-24T20:44:21.339Z,142.07
2022-11-24T20:46:50.364Z,154.83
2022-11-24T20:49:21.774Z,142.00
2022-11-24T20:51:54.502Z,146.40
2022-11-24T20:54:23.222Z,151.17
2022-11-24T20:56:52.739Z,162.57
2022-11-24T20:59:24.442Z,160.53
2022-11-24T21:01:55.291Z,164.80
2022-11-24T21:04:26.446Z,175.23
2022-11-24T21:06:58.018Z,179.07
2022-11-24T21:09:27.199Z,172.23
2022-11-24T21:11:55.898Z,149.53
2022-11-24T21:14:24.629Z,148.77
2022-11-24T21:16:53.105Z,144.20
2022-11-24T21:19:22.475Z,141.93
2022-11-24T21:21:50.970Z,135.67
2022-11-24T21:24:21.613Z,127.00
2022-11-24T21:26:52.889Z,133.23
2022-11-24T21:29:23.608Z,141.37
2022-11-24T21:31:52.691Z,139.43
2022-11-24T21:34:20.959Z,159.47
2022-11-24T21:36:52.671Z,142.43
2022-11-24T21:39:23.409Z,138.60
2022-11-24T21:41:51.905Z,135.87
2022-11-24T21:44:22.996Z,149.53
2022-11-24T21:46:55.874Z,146.93
2022-11-24T21:49:24.419Z,147.53
2022-11-24T21:51:55.862Z,143.83
2022-11-24T21:54:25.573Z,146.30
2022-11-24T21:56:55.459Z,151.37
2022-11-24T21:59:23.614Z,158.33
2022-11-24T22:01:52.140Z,150.53
2022-11-24T22:04:20.242Z,161.20
2022-11-24T22:06:48.586Z,150.13
2022-11-24T22:09:18.434Z,154.63
2022-11-24T22:11:49.652Z,160.30
2022-11-24T22:14:17.867Z,162.27
2022-11-24T22:16:46.554Z,144.20
2022-11-24T22:19:15.267Z,147.13
2022-11-24T22:21:44.340Z,159.77
2022-11-24T22:24:13.033Z,157.13
2022-11-24T22:26:41.498Z,146.10
2022-11-24T22:29:11.368Z,163.30
2022-11-24T22:31:40.177Z,163.03
2022-11-24T22:34:08.381Z,153.37
2022-11-24T22:36:37.627Z,158.40
2022-11-24T22:39:07.006Z,154.93
2022-11-24T22:41:36.617Z,147.17
2022-11-24T22:44:05.598Z,152.97
2022-11-24T22:46:35.287Z,142.60
2022-11-24T22:49:03.413Z,142.50
2022-11-24T22:51:33.253Z,143.87
2022-11-24T22:54:04.351Z,140.23
2022-11-24T22:56:33.296Z,131.73
2022-11-24T22:59:02.618Z,139.53
2022-11-24T23:01:33.508Z,139.33
2022-11-24T23:04:03.925Z,132.93
2022-11-24T23:06:34.081Z,132.33
2022-11-24T23:09:03.644Z,142.47
2022-11-24T23:11:38.050Z,134.80
2022-11-24T23:14:08.429Z,147.27
2022-11-24T23:16:37.357Z,135.30
2022-11-24T23:19:07.023Z,136.63
2022-11-24T23:21:38.245Z,132.63
2022-11-24T23:24:08.500Z,139.60
2022-11-24T23:26:38.725Z,120.70
2022-11-24T23:29:08.105Z,125.07
2022-11-24T23:31:39.847Z,131.83
2022-11-24T23:34:10.236Z,124.53
2022-11-24T23:36:39.454Z,129.23
2022-11-24T23:39:09.812Z,128.87
2022-11-24T23:41:39.178Z,131.10
2022-11-24T23:44:08.028Z,127.40
2022-11-24T23:46:36.459Z,121.87
2022-11-24T23:49:04.528Z,133.23
2022-11-24T23:51:34.423Z,126.77
2022-11-24T23:54:03.142Z,125.17
2022-11-24T23:56:37.500Z,133.60
2022-11-24T23:59:06.232Z,140.97
